Flight Number: EUR1411 Duration: 1:15
Departure: Geneva Cointrin Airport (LSGG) at 21:15 Distance: 386 Nm
Arrival: Gatwick Airport (EGKK) at 22:30 Equipment: B737

Weather Information
Geneve-Cointrin, Switzerland (LSGG) 46-15N 006-08E 416M Feb 24, 2018 - 12:50 AM EST / 2018.02.24 0550 UTC
Wind: from the N (010 degrees) at 8 MPH (7 KT):0
Visibility: 4 mile(s):0
Sky conditions: overcast Temperature: 30 F (-1 C)
Windchill: 23 F (-5 C):1 Dew Point: 23 F (-5 C) Relative Humidity: 74% Pressure (altimeter): 29.83 in. Hg (1010 hPa)
ob: LSGG 240550Z 01007KT 7000 OVC020 M01/M05 Q1010 NOSIG cycle: 6
Sunrise: 06:25 Sunset: 17:11 (UTC)

London / Gatwick Airport, United Kingdom (EGKK) 51-09N 000-11W 0M Feb 24, 2018 - 12:50 AM EST / 2018.02.24 0550 UTC
Wind: from the ENE (070 degrees) at 9 MPH (8 KT):0
Visibility: greater than 7 mile(s):0 Temperature: 26 F (-3 C)
Windchill: 17 F (-8 C):1 Dew Point: 23 F (-5 C) Relative Humidity: 86% Pressure (altimeter): 30.09 in. Hg (1019 hPa)
ob: EGKK 240550Z 07008KT CAVOK M03/M05 Q1019 cycle: 6
Sunrise: 06:58 Sunset: 17:29 (UTC)

TAF:2018/02/24 06:19 TAF EGKK 240454Z 2406/2512 08012KT 9999 SCT030 TEMPO 2406/2410 8000 PROB30 TEMPO 2412/2421 09015G25KT

Previous Pireps for this route
Date Aircraft Flight time Fuel used Landing rate On time
2014-01-11B73702.3610130-315No
2014-02-17B73701.4813947-544No
2015-01-05B7371.227616-86No
2016-01-23B7372.06126000No
2016-02-23CRJ7001.333444-176Charter
2016-03-21B73701.296924-158No
2016-04-18B73701.327618-361Yes
2016-08-28B73700.599847-306Yes
2016-10-28B7371.1478790No
(pireps marked green are flown by you)

Route map